Time;durP1;ratioP1;P1;durP2;ratioP2;P2;SDS_P1;SDS_P2;PMS_P1;PMS_P2;Temp;Humidity;BMP_temperature;BMP_pressure;BME280_temperature;BME280_humidity;BME280_pressure;Samples;Min_cycle;Max_cycle;Signal;HPM_P1;HPM_P2
2022/07/31 00:00:24;;;;;;;12.07;4.12;;;;;;;20.92;76.08;147400.31;1763866;81;20954;-53
2022/07/31 00:02:51;;;;;;;8.98;4.37;;;;;;;20.90;76.04;147395.25;1763616;81;21014;-53
2022/07/31 00:05:18;;;;;;;7.22;3.92;;;;;;;20.87;75.76;147388.94;1763610;81;21014;-53
2022/07/31 00:07:46;;;;;;;8.83;3.72;;;;;;;20.91;75.32;147399.02;1763589;81;21041;-54
2022/07/31 00:10:14;;;;;;;9.50;3.90;;;;;;;20.91;75.00;147399.02;1763830;81;21515;-54
2022/07/31 00:12:40;;;;;;;5.33;3.70;;;;;;;20.95;75.09;147409.16;1763871;81;21522;-54
2022/07/31 00:15:11;;;;;;;11.53;4.25;;;;;;;20.91;74.90;147399.02;1763603;81;21014;-52
2022/07/31 00:17:40;;;;;;;8.15;3.83;;;;;;;20.91;74.49;147399.02;1764111;81;21011;-53
2022/07/31 00:20:13;;;;;;;10.75;3.95;;;;;;;20.91;74.49;147399.02;1763562;81;21058;-54
2022/07/31 00:22:41;;;;;;;5.60;3.50;;;;;;;20.85;74.25;147383.88;1763874;81;20966;-53
2022/07/31 00:25:10;;;;;;;7.53;3.77;;;;;;;20.80;73.97;147372.48;1763635;81;21536;-53
2022/07/31 00:27:39;;;;;;;7.05;4.12;;;;;;;20.80;73.97;147371.23;1763878;81;21005;-52
2022/07/31 00:30:08;;;;;;;6.17;3.17;;;;;;;20.76;73.69;147361.09;1763845;81;21527;-52
2022/07/31 00:32:36;;;;;;;13.03;3.72;;;;;;;20.73;73.51;147353.53;1763845;81;20989;-53
2022/07/31 00:35:05;;;;;;;7.62;3.70;;;;;;;20.76;73.49;147361.09;1763472;81;21003;-54
2022/07/31 00:37:36;;;;;;;10.50;3.67;;;;;;;20.79;72.53;147369.97;1763921;81;21095;-53
2022/07/31 00:40:09;;;;;;;7.65;3.67;;;;;;;20.78;72.58;147367.42;1763803;81;21017;-54
2022/07/31 00:42:37;;;;;;;8.03;3.75;;;;;;;20.75;72.20;147358.59;1763580;81;21073;-53
2022/07/31 00:45:06;;;;;;;9.48;3.98;;;;;;;20.69;72.78;147344.70;1735908;81;21006;-53
2022/07/31 00:47:34;;;;;;;7.35;3.58;;;;;;;20.73;72.28;147354.78;1763842;81;20994;-53
2022/07/31 00:50:01;;;;;;;7.85;3.90;;;;;;;20.77;71.97;147364.91;1763568;81;21015;-56
2022/07/31 00:52:29;;;;;;;6.03;3.80;;;;;;;20.76;71.70;147362.41;1763587;81;21033;-55
2022/07/31 00:54:56;;;;;;;10.82;3.50;;;;;;;20.79;71.45;147369.97;1763634;81;21491;-55
2022/07/31 00:57:23;;;;;;;5.92;3.75;;;;;;;20.78;71.21;147366.16;1763671;81;21025;-55
2022/07/31 00:59:50;;;;;;;6.78;3.45;;;;;;;20.72;71.38;147351.02;1763803;81;21014;-55
2022/07/31 01:02:17;;;;;;;6.97;3.67;;;;;;;20.66;71.61;147335.81;1763658;81;21022;-54
2022/07/31 01:04:44;;;;;;;5.00;3.20;;;;;;;20.59;71.86;147319.42;1763791;81;21049;-54
2022/07/31 01:07:11;;;;;;;7.47;3.70;;;;;;;20.63;71.90;147329.50;1763598;81;20999;-53
2022/07/31 01:09:39;;;;;;;8.13;3.37;;;;;;;20.62;71.45;147325.75;1763547;81;21037;-52
2022/07/31 01:12:30;;;;;;;7.50;3.47;;;;;;;20.53;71.78;147305.48;1763585;81;20994;-52
2022/07/31 01:15:02;;;;;;;9.40;3.47;;;;;;;20.50;71.62;147297.88;1750229;81;21515;-53
2022/07/31 01:17:31;;;;;;;7.25;3.12;;;;;;;20.48;71.15;147292.84;1763905;81;21022;-53
2022/07/31 01:19:59;;;;;;;6.75;3.40;;;;;;;20.46;70.70;147287.78;1763559;81;21492;-53
2022/07/31 01:22:56;;;;;;;5.05;3.02;;;;;;;20.44;70.92;147282.72;1763533;81;21014;-53
2022/07/31 01:26:04;;;;;;;9.33;4.92;;;;;;;20.43;70.96;147278.91;1763374;81;21018;-53
2022/07/31 01:28:59;;;;;;;6.33;3.10;;;;;;;20.38;71.36;147267.58;1735519;81;21472;-53
2022/07/31 01:31:47;;;;;;;6.58;3.33;;;;;;;20.36;70.92;147262.52;1758557;81;21534;-54
2022/07/31 01:34:28;;;;;;;6.55;3.02;;;;;;;20.28;70.74;147242.31;1763613;81;20983;-53
2022/07/31 01:37:22;;;;;;;6.20;2.98;;;;;;;20.25;70.84;147236.00;1756949;81;21003;-54
2022/07/31 01:39:55;;;;;;;7.37;2.90;;;;;;;20.16;71.05;147214.48;1763793;81;21025;-53
2022/07/31 01:42:25;;;;;;;7.95;3.35;;;;;;;20.12;70.81;147204.41;1763698;81;21073;-52
2022/07/31 01:44:57;;;;;;;5.78;2.98;;;;;;;20.10;70.94;147199.34;1763805;81;20967;-53
2022/07/31 01:47:26;;;;;;;8.25;3.27;;;;;;;20.05;71.13;147185.41;1763931;81;21039;-53
2022/07/31 01:49:55;;;;;;;10.00;3.10;;;;;;;20.04;71.58;147184.16;1763792;81;21026;-52
2022/07/31 01:52:26;;;;;;;7.50;3.47;;;;;;;20.04;71.52;147182.91;1763829;81;21444;-53
2022/07/31 01:54:54;;;;;;;5.92;2.92;;;;;;;19.99;71.17;147171.53;1759068;81;21015;-52
2022/07/31 01:57:25;;;;;;;6.58;2.80;;;;;;;19.98;71.23;147169.02;1748952;82;20976;-52
2022/07/31 01:59:59;;;;;;;10.05;2.83;;;;;;;20.03;70.73;147181.66;1748998;82;21034;-52
2022/07/31 02:02:44;;;;;;;5.97;3.02;;;;;;;20.02;70.72;147177.84;1728732;82;21015;-54
2022/07/31 02:05:12;;;;;;;4.12;2.50;;;;;;;20.07;70.80;147190.47;1748794;82;21025;-53
2022/07/31 02:07:43;;;;;;;5.37;2.77;;;;;;;20.10;70.50;147199.34;1748946;82;20999;-53
2022/07/31 02:10:13;;;;;;;8.83;3.45;;;;;;;20.04;70.64;147182.91;1749193;82;20999;-54
2022/07/31 02:12:42;;;;;;;5.50;2.90;;;;;;;20.00;70.77;147174.08;1749439;82;21147;-54
2022/07/31 02:15:13;;;;;;;6.50;3.02;;;;;;;19.89;71.10;147147.52;1748969;82;21021;-54
2022/07/31 02:17:44;;;;;;;5.45;2.72;;;;;;;19.81;71.32;147126.06;1749287;82;20967;-54
2022/07/31 02:20:20;;;;;;;4.30;2.80;;;;;;;19.76;71.39;147113.44;1733933;82;21066;-54
2022/07/31 02:22:48;;;;;;;7.12;3.08;;;;;;;19.75;71.51;147110.92;1749223;82;21554;-54
2022/07/31 02:25:15;;;;;;;5.08;2.62;;;;;;;19.74;71.56;147109.63;1749298;82;21054;-53
2022/07/31 02:27:44;;;;;;;7.40;2.60;;;;;;;19.75;71.44;147110.92;1749046;82;21018;-54
2022/07/31 02:30:14;;;;;;;5.30;2.67;;;;;;;19.73;71.06;147107.13;1749269;82;21026;-54
2022/07/31 02:32:45;;;;;;;6.45;2.72;;;;;;;19.75;70.58;147110.92;1726452;82;21527;-53
2022/07/31 02:35:16;;;;;;;4.85;2.58;;;;;;;19.77;70.60;147115.94;1749007;82;21054;-53
2022/07/31 02:37:44;;;;;;;6.73;2.70;;;;;;;19.75;70.22;147112.19;1749449;82;21015;-57
2022/07/31 02:40:13;;;;;;;4.72;2.30;;;;;;;19.77;70.21;147115.94;1725597;82;20987;-54
2022/07/31 02:42:42;;;;;;;7.85;2.83;;;;;;;19.79;69.88;147121.00;1725772;82;21023;-54
2022/07/31 02:45:10;;;;;;;4.05;2.62;;;;;;;19.78;69.30;147118.50;1749158;82;20994;-54
2022/07/31 02:47:39;;;;;;;5.22;2.62;;;;;;;19.81;69.50;147126.06;1749196;82;21062;-53
2022/07/31 02:50:09;;;;;;;5.90;2.33;;;;;;;19.85;69.19;147136.19;1748870;82;21480;-54
2022/07/31 02:52:37;;;;;;;6.37;2.22;;;;;;;19.88;69.08;147143.75;1749195;82;21006;-53
2022/07/31 02:55:06;;;;;;;5.90;2.60;;;;;;;19.89;68.92;147146.27;1748836;82;21034;-54
2022/07/31 02:57:34;;;;;;;5.83;2.30;;;;;;;19.91;68.86;147151.33;1749369;82;20986;-54
2022/07/31 03:00:03;;;;;;;6.58;2.20;;;;;;;19.89;69.01;147146.27;1749243;82;21042;-54
2022/07/31 03:02:31;;;;;;;3.45;2.00;;;;;;;19.88;69.12;147145.02;1747474;82;21019;-52
2022/07/31 03:05:01;;;;;;;5.55;2.25;;;;;;;19.92;68.97;147153.83;1749058;82;21022;-53
2022/07/31 03:07:30;;;;;;;5.25;2.30;;;;;;;19.93;69.18;147157.64;1749075;82;21483;-55
2022/07/31 03:09:57;;;;;;;5.20;2.15;;;;;;;19.92;69.50;147155.12;1749334;82;21019;-55
2022/07/31 03:12:31;;;;;;;5.55;2.22;;;;;;;19.91;69.69;147152.58;1749237;82;21042;-53
2022/07/31 03:14:59;;;;;;;5.28;2.58;;;;;;;19.95;69.72;147162.70;1749205;82;21027;-53
2022/07/31 03:17:29;;;;;;;5.90;2.40;;;;;;;20.01;69.53;147175.34;1748969;82;21027;-54
2022/07/31 03:19:58;;;;;;;6.85;2.60;;;;;;;20.00;69.73;147174.08;1749297;82;21042;-54
2022/07/31 03:22:26;;;;;;;4.53;2.08;;;;;;;20.05;70.01;147185.41;1748950;82;21191;-52
2022/07/31 03:24:54;;;;;;;4.95;2.10;;;;;;;20.13;69.85;147206.91;1749142;82;21018;-55
2022/07/31 03:27:21;;;;;;;6.42;2.12;;;;;;;20.16;69.89;147214.48;1726262;82;20976;-54
2022/07/31 03:29:48;;;;;;;4.95;2.08;;;;;;;20.26;69.43;147237.25;1749272;82;21479;-54
2022/07/31 03:32:15;;;;;;;5.00;2.83;;;;;;;20.28;69.14;147242.31;1748960;82;21026;-54
2022/07/31 03:34:43;;;;;;;5.42;2.30;;;;;;;20.25;69.35;147234.69;1749166;82;21551;-53
2022/07/31 03:37:11;;;;;;;5.85;2.00;;;;;;;20.21;69.49;147225.86;1749129;82;21511;-54
2022/07/31 03:39:38;;;;;;;6.45;2.33;;;;;;;20.20;69.25;147222.06;1749040;82;21026;-54
2022/07/31 03:42:10;;;;;;;6.33;2.67;;;;;;;20.26;69.00;147237.25;1748956;82;20971;-54
2022/07/31 03:44:40;;;;;;;5.67;2.40;;;;;;;20.35;68.70;147261.27;1749295;82;20998;-55
2022/07/31 03:47:07;;;;;;;6.17;2.30;;;;;;;20.45;67.95;147285.22;1749176;82;21515;-54
2022/07/31 03:49:35;;;;;;;6.37;2.00;;;;;;;20.50;67.93;147297.88;1749014;82;21503;-55
2022/07/31 03:52:02;;;;;;;9.98;2.33;;;;;;;20.58;66.84;147318.17;1749217;82;21031;-54
2022/07/31 03:54:30;;;;;;;5.40;2.30;;;;;;;20.57;66.51;147315.61;1725918;82;20999;-53
2022/07/31 03:57:10;;;;;;;5.30;2.20;;;;;;;20.63;67.13;147328.25;1762598;81;21099;-54
2022/07/31 03:59:37;;;;;;;4.75;2.30;;;;;;;20.75;66.44;147358.59;1764198;81;21022;-54
2022/07/31 04:02:06;;;;;;;4.55;2.27;;;;;;;20.76;66.36;147362.41;1763922;81;21516;-54
2022/07/31 04:04:38;;;;;;;7.53;2.55;;;;;;;20.81;65.90;147373.73;1763796;81;21078;-53
2022/07/31 04:07:05;;;;;;;6.75;2.52;;;;;;;20.80;65.54;147371.23;1763822;81;21056;-53
2022/07/31 04:09:32;;;;;;;6.78;2.40;;;;;;;20.69;65.31;147343.44;1764065;81;21535;-54
2022/07/31 04:12:01;;;;;;;6.33;2.25;;;;;;;20.62;65.55;147327.00;1763803;81;21121;-54
2022/07/31 04:14:28;;;;;;;6.58;2.17;;;;;;;20.59;65.73;147320.67;1764082;81;20999;-54
2022/07/31 04:16:55;;;;;;;6.22;2.00;;;;;;;20.64;65.54;147330.81;1763858;81;21039;-54
2022/07/31 04:19:24;;;;;;;6.10;2.12;;;;;;;20.69;65.14;147343.44;1763861;81;21050;-55
2022/07/31 04:21:52;;;;;;;6.10;1.80;;;;;;;20.76;65.01;147362.41;1763771;81;21083;-54
2022/07/31 04:24:20;;;;;;;6.28;2.20;;;;;;;20.86;64.31;147386.37;1763253;81;21000;-53
2022/07/31 04:26:56;;;;;;;5.40;2.20;;;;;;;20.91;63.59;147397.77;1740685;81;21106;-53
2022/07/31 04:29:30;;;;;;;6.08;2.42;;;;;;;20.91;63.21;147397.77;1764014;81;21039;-53
2022/07/31 04:31:55;;;;;;;7.30;2.90;;;;;;;21.00;63.55;147421.78;1762380;81;21559;-54
2022/07/31 04:34:24;;;;;;;8.15;1.90;;;;;;;21.03;63.26;147429.36;1763486;81;21094;-53
2022/07/31 04:36:54;;;;;;;3.95;1.92;;;;;;;21.03;63.17;147428.11;1763624;81;21050;-53
2022/07/31 04:39:21;;;;;;;4.25;2.00;;;;;;;21.09;63.35;147442.00;1763475;81;20980;-54
2022/07/31 04:41:48;;;;;;;3.77;1.90;;;;;;;21.17;63.06;147463.53;1763695;81;21043;-54
2022/07/31 04:44:15;;;;;;;5.15;2.30;;;;;;;21.25;62.52;147483.75;1763787;81;21034;-53
2022/07/31 04:46:48;;;;;;;4.33;1.87;;;;;;;21.38;62.03;147515.41;1759849;81;21035;-54
2022/07/31 04:49:16;;;;;;;6.45;2.42;;;;;;;21.41;62.01;147522.97;1763752;81;21039;-55
2022/07/31 04:51:43;;;;;;;4.85;1.85;;;;;;;21.41;61.63;147522.97;1763455;81;21015;-53
2022/07/31 04:54:11;;;;;;;5.62;2.00;;;;;;;21.40;61.91;147519.22;1763506;81;21007;-53
2022/07/31 04:56:41;;;;;;;4.05;1.77;;;;;;;21.41;62.12;147522.97;1760154;81;21031;-54
2022/07/31 04:59:14;;;;;;;5.55;2.27;;;;;;;21.51;61.56;147547.00;1763242;81;21123;-54
2022/07/31 05:01:44;;;;;;;6.22;2.17;;;;;;;21.62;61.23;147574.81;1763454;81;21496;-54
2022/07/31 05:04:15;;;;;;;5.22;2.30;;;;;;;21.67;61.02;147586.20;1763506;81;21052;-53
2022/07/31 05:06:46;;;;;;;7.20;2.10;;;;;;;21.72;61.21;147598.84;1754589;81;20996;-52
2022/07/31 05:09:17;;;;;;;4.00;2.08;;;;;;;21.84;60.47;147629.22;1750348;82;21509;-54
2022/07/31 05:11:46;;;;;;;5.80;2.00;;;;;;;21.82;60.64;147624.14;1751141;82;21004;-54
2022/07/31 05:14:16;;;;;;;4.67;1.92;;;;;;;21.89;60.52;147640.59;1744545;81;21040;-54
2022/07/31 05:16:43;;;;;;;4.22;2.10;;;;;;;21.99;60.15;147665.91;1724759;83;21044;-54
2022/07/31 05:19:12;;;;;;;5.62;1.82;;;;;;;22.17;59.61;147710.19;1751861;81;21008;-54
2022/07/31 05:21:45;;;;;;;5.45;1.80;;;;;;;22.36;59.01;147757.02;1718690;81;21172;-54
2022/07/31 05:24:16;;;;;;;4.15;1.82;;;;;;;22.54;58.30;147801.30;1723187;81;21066;-55
2022/07/31 05:26:57;;;;;;;5.67;2.10;;;;;;;22.66;58.34;147830.42;1754213;81;21520;-55
2022/07/31 05:29:25;;;;;;;5.15;1.87;;;;;;;22.81;57.68;147867.14;1754385;81;21120;-53
2022/07/31 05:31:52;;;;;;;3.40;1.60;;;;;;;23.04;56.50;147925.41;1752953;81;21500;-54
2022/07/31 05:34:21;;;;;;;7.58;2.30;;;;;;;23.11;55.79;147943.13;1743649;82;21437;-54
2022/07/31 05:36:49;;;;;;;6.80;2.15;;;;;;;23.18;55.90;147960.86;1759040;81;21501;-54
2022/07/31 05:39:16;;;;;;;3.55;2.00;;;;;;;23.33;54.86;147997.59;1757931;81;21772;-54
2022/07/31 05:42:04;;;;;;;4.67;1.95;;;;;;;23.89;53.65;148135.67;1677841;84;21025;-54
2022/07/31 05:44:35;;;;;;;6.72;1.77;;;;;;;25.00;50.52;148410.64;1670705;85;21064;-54
2022/07/31 05:47:07;;;;;;;7.70;2.12;;;;;;;25.91;48.22;148635.19;1683410;82;21518;-54
2022/07/31 05:49:33;;;;;;;5.35;1.80;;;;;;;26.50;46.40;148782.31;1704952;84;21012;-54
2022/07/31 05:52:02;;;;;;;5.72;1.75;;;;;;;27.02;44.82;148910.52;1754641;81;21012;-54
2022/07/31 05:54:31;;;;;;;5.25;1.50;;;;;;;27.66;44.19;149069.28;1757648;81;20988;-55
2022/07/31 05:57:17;;;;;;;4.90;1.55;;;;;;;28.38;42.30;149247.13;1755478;81;21136;-54
2022/07/31 05:59:45;;;;;;;7.78;1.90;;;;;;;29.01;40.21;149404.72;1753427;81;21075;-54
2022/07/31 06:02:12;;;;;;;7.60;2.02;;;;;;;29.25;40.23;149463.22;1751182;82;21501;-54
2022/07/31 06:04:44;;;;;;;6.42;1.40;;;;;;;29.69;38.80;149572.56;1750959;82;21122;-56
2022/07/31 06:07:11;;;;;;;5.22;2.00;;;;;;;29.56;38.77;149540.73;1751093;82;21087;-56
2022/07/31 06:09:38;;;;;;;6.22;2.08;;;;;;;29.25;39.25;149464.47;1750937;82;21056;-55
2022/07/31 06:12:06;;;;;;;3.90;2.00;;;;;;;29.04;39.84;149411.08;1750902;82;21036;-56
2022/07/31 06:14:34;;;;;;;5.50;1.90;;;;;;;28.94;40.34;149386.92;1751231;82;21016;-56
2022/07/31 06:17:06;;;;;;;5.40;2.10;;;;;;;29.16;39.43;149442.89;1750753;82;21043;-55
2022/07/31 06:19:36;;;;;;;6.62;2.20;;;;;;;29.52;38.72;149531.86;1750910;82;21067;-58
2022/07/31 06:22:03;;;;;;;10.18;2.70;;;;;;;29.67;38.62;149567.47;1751169;82;21047;-57
2022/07/31 06:24:33;;;;;;;5.22;2.00;;;;;;;29.93;38.17;149633.61;1750954;82;21040;-58
2022/07/31 06:27:02;;;;;;;12.10;2.30;;;;;;;30.11;37.68;149676.84;1751156;82;21063;-59
2022/07/31 06:29:31;;;;;;;6.83;1.95;;;;;;;30.53;37.62;149781.16;1751364;82;21039;-56
2022/07/31 06:31:58;;;;;;;5.00;2.00;;;;;;;30.63;36.53;149807.91;1750895;82;21012;-55
2022/07/31 06:34:25;;;;;;;4.37;1.95;;;;;;;30.49;36.87;149773.53;1750945;82;21008;-56
2022/07/31 06:36:53;;;;;;;7.15;1.92;;;;;;;30.51;36.79;149777.38;1751149;82;21048;-54
2022/07/31 06:39:21;;;;;;;6.78;1.77;;;;;;;30.63;36.36;149807.91;1751136;82;21508;-57
2022/07/31 06:41:51;;;;;;;8.28;1.80;;;;;;;30.90;35.66;149875.34;1750693;82;21075;-56
2022/07/31 06:44:32;;;;;;;4.05;1.72;;;;;;;30.87;35.54;149867.72;1751057;82;21012;-55
2022/07/31 06:47:24;;;;;;;8.83;2.20;;;;;;;30.94;35.72;149884.28;1750892;82;21031;-57
2022/07/31 06:50:09;;;;;;;4.37;1.85;;;;;;;30.99;35.51;149897.00;1751036;82;21156;-57
2022/07/31 06:52:41;;;;;;;4.83;1.80;;;;;;;31.44;34.77;150008.98;1750838;82;21064;-58
2022/07/31 06:55:09;;;;;;;6.40;1.70;;;;;;;31.74;34.25;150082.83;1751039;82;21044;-58
2022/07/31 06:57:37;;;;;;;8.85;1.82;;;;;;;31.54;33.74;150033.19;1728272;82;21087;-56
2022/07/31 07:00:07;;;;;;;5.65;1.87;;;;;;;31.59;33.87;150045.91;1723292;83;21516;-58
2022/07/31 07:02:35;;;;;;;4.47;1.72;;;;;;;31.61;33.91;150049.75;1723466;82;21031;-58
2022/07/31 07:05:03;;;;;;;3.25;1.45;;;;;;;31.94;33.71;150132.53;1723300;83;21040;-57
2022/07/31 07:07:30;;;;;;;4.03;1.45;;;;;;;32.23;33.00;150206.33;1723333;83;21566;-57
2022/07/31 07:09:59;;;;;;;5.35;1.67;;;;;;;31.88;33.00;150118.48;1723075;83;21048;-58
2022/07/31 07:12:27;;;;;;;4.87;1.62;;;;;;;31.72;33.27;150078.98;1724919;83;21083;-57
2022/07/31 07:14:56;;;;;;;3.65;1.75;;;;;;;31.51;33.09;150026.81;1723087;83;21048;-56
2022/07/31 07:17:24;;;;;;;6.05;2.62;;;;;;;31.52;33.26;150028.08;1723102;83;21055;-58
2022/07/31 07:19:51;;;;;;;6.55;2.00;;;;;;;31.41;33.26;150001.36;1723084;83;21040;-58
2022/07/31 07:22:19;;;;;;;9.85;1.62;;;;;;;31.22;33.74;149952.94;1723142;83;21486;-56
2022/07/31 07:24:46;;;;;;;4.70;2.15;;;;;;;31.53;33.37;150031.91;1723165;83;21513;-55
2022/07/31 07:27:14;;;;;;;4.17;1.95;;;;;;;31.50;32.31;150023.03;1723514;83;21040;-57
2022/07/31 07:29:41;;;;;;;5.08;1.40;;;;;;;31.48;32.66;150019.19;1723095;83;21147;-57
2022/07/31 07:32:08;;;;;;;5.17;2.02;;;;;;;31.58;32.24;150044.64;1723144;83;21078;-56
2022/07/31 07:34:36;;;;;;;6.37;1.98;;;;;;;31.93;32.26;150131.27;1723007;83;21039;-57
2022/07/31 07:37:03;;;;;;;4.37;1.57;;;;;;;32.21;31.19;150201.28;1723259;83;21017;-56
2022/07/31 07:39:32;;;;;;;8.25;1.62;;;;;;;32.27;30.65;150215.27;1723087;83;21040;-56
2022/07/31 07:41:59;;;;;;;7.08;1.70;;;;;;;32.00;31.29;150147.78;1723014;83;21020;-56
2022/07/31 07:44:26;;;;;;;5.33;1.40;;;;;;;31.92;31.18;150127.38;1723268;83;21148;-56
2022/07/31 07:46:53;;;;;;;4.65;1.25;;;;;;;31.46;31.59;150012.83;1723028;83;21048;-56
2022/07/31 07:49:20;;;;;;;7.83;2.05;;;;;;;31.17;31.80;149941.53;1723097;83;21055;-56
2022/07/31 07:51:50;;;;;;;6.07;1.60;;;;;;;31.24;32.04;149959.30;1723326;83;21169;-56
2022/07/31 07:54:28;;;;;;;4.58;1.32;;;;;;;31.66;31.67;150063.73;1709765;83;21543;-57
2022/07/31 07:57:15;;;;;;;4.08;1.45;;;;;;;31.59;30.67;150045.91;1722991;82;21609;-56
2022/07/31 07:59:56;;;;;;;4.33;1.37;;;;;;;31.22;31.56;149954.25;1722995;83;21543;-56
2022/07/31 08:02:43;;;;;;;4.17;1.50;;;;;;;31.07;31.31;149917.34;1723041;83;21517;-56
2022/07/31 08:05:11;;;;;;;4.37;1.60;;;;;;;30.72;31.81;149829.50;1723626;83;21024;-56
2022/07/31 08:07:42;;;;;;;10.00;1.52;;;;;;;30.88;32.16;149870.25;1723057;83;21071;-56
2022/07/31 08:10:17;;;;;;;4.60;1.65;;;;;;;31.25;31.84;149961.88;1722359;83;21596;-56
2022/07/31 08:12:46;;;;;;;5.87;1.40;;;;;;;31.53;31.07;150030.66;1722818;83;21036;-56
2022/07/31 08:15:28;;;;;;;3.67;1.50;;;;;;;31.63;31.07;150056.11;1723234;83;21036;-56
2022/07/31 08:18:07;;;;;;;10.72;1.87;;;;;;;31.34;29.93;149983.48;1722805;83;21165;-56
2022/07/31 08:20:37;;;;;;;4.85;1.80;;;;;;;31.15;31.16;149936.44;1690499;85;21032;-57
2022/07/31 08:23:04;;;;;;;5.62;2.08;;;;;;;30.88;31.25;149870.25;1700405;84;21501;-57
2022/07/31 08:25:32;;;;;;;6.42;1.77;;;;;;;30.87;31.12;149867.72;1720454;83;21119;-57
2022/07/31 08:27:59;;;;;;;8.65;2.10;;;;;;;31.14;30.75;149935.17;1720462;83;21079;-57
2022/07/31 08:30:26;;;;;;;6.92;1.70;;;;;;;31.26;30.35;149963.14;1723048;82;21040;-57
2022/07/31 08:32:53;;;;;;;3.22;1.17;;;;;;;31.34;28.79;149983.48;1723417;82;21501;-56
2022/07/31 08:35:22;;;;;;;6.25;1.40;;;;;;;31.38;29.20;149992.44;1723050;83;21040;-55
2022/07/31 08:37:49;;;;;;;7.37;1.57;;;;;;;31.12;29.91;149930.06;1723101;83;21037;-56
2022/07/31 08:40:19;;;;;;;3.80;1.52;;;;;;;30.89;29.85;149872.81;1722988;83;21039;-56
2022/07/31 08:42:47;;;;;;;2.77;0.98;;;;;;;30.89;30.01;149872.81;1723241;82;21071;-56
2022/07/31 08:45:14;;;;;;;4.35;1.32;;;;;;;30.71;29.31;149828.25;1723260;83;21518;-58
2022/07/31 08:47:47;;;;;;;3.15;1.27;;;;;;;30.63;30.79;149806.59;1723236;83;21008;-57
2022/07/31 08:50:17;;;;;;;3.90;1.37;;;;;;;30.62;31.13;149804.06;1723111;82;21024;-56
2022/07/31 08:52:48;;;;;;;3.62;1.10;;;;;;;30.53;31.33;149781.16;1723082;83;21200;-55
2022/07/31 08:55:18;;;;;;;3.62;1.32;;;;;;;30.60;31.26;149798.97;1723012;83;21040;-56
2022/07/31 08:57:49;;;;;;;5.35;1.57;;;;;;;30.60;31.55;149800.23;1723224;82;21032;-57
2022/07/31 09:00:18;;;;;;;5.40;1.37;;;;;;;30.58;30.33;149793.88;1723067;83;21036;-56
2022/07/31 09:02:47;;;;;;;3.50;1.22;;;;;;;30.46;31.23;149765.91;1723236;83;21055;-56
2022/07/31 09:05:19;;;;;;;5.17;1.25;;;;;;;30.58;32.30;149793.88;1723056;82;21036;-56
2022/07/31 09:07:47;;;;;;;2.87;1.47;;;;;;;30.64;32.55;149810.44;1723051;82;21092;-55
2022/07/31 09:10:24;;;;;;;6.87;1.40;;;;;;;30.61;32.62;149802.81;1723070;83;21074;-55
2022/07/31 09:12:54;;;;;;;4.58;1.40;;;;;;;30.76;32.67;149839.70;1723103;83;21072;-56
2022/07/31 09:15:26;;;;;;;3.67;1.50;;;;;;;30.45;32.58;149763.34;1723198;83;21024;-55
2022/07/31 09:17:54;;;;;;;7.47;1.32;;;;;;;30.16;33.05;149690.83;1723211;83;21032;-55
2022/07/31 09:20:26;;;;;;;3.25;1.50;;;;;;;30.00;33.48;149651.41;1723210;82;21064;-54
2022/07/31 09:23:08;;;;;;;4.62;1.45;;;;;;;29.77;33.14;149592.94;1723151;83;21020;-55
2022/07/31 09:25:38;;;;;;;3.12;1.25;;;;;;;29.27;33.62;149468.31;1723276;83;20989;-54
2022/07/31 09:28:06;;;;;;;4.92;1.22;;;;;;;28.76;34.33;149343.70;1722909;83;21040;-54
2022/07/31 09:30:34;;;;;;;4.15;1.12;;;;;;;28.44;34.09;149262.34;1722960;83;21028;-54
2022/07/31 09:33:15;;;;;;;4.55;1.22;;;;;;;28.05;35.16;149167.09;1722983;83;21013;-53
2022/07/31 09:36:02;;;;;;;2.58;1.20;;;;;;;27.77;36.73;149095.94;1722862;83;21561;-54
2022/07/31 09:38:37;;;;;;;6.25;1.60;;;;;;;27.58;37.20;149050.25;1723217;83;21529;-53
2022/07/31 09:41:16;;;;;;;3.40;1.40;;;;;;;27.60;37.28;149054.03;1685683;82;21020;-54
2022/07/31 09:44:01;;;;;;;3.52;1.30;;;;;;;27.42;35.95;149010.84;1689409;83;21499;-53
2022/07/31 09:46:44;;;;;;;6.72;1.65;;;;;;;27.30;36.63;148980.42;1716297;83;21014;-53
2022/07/31 09:49:12;;;;;;;5.92;1.62;;;;;;;27.24;35.73;148966.42;1716051;83;21112;-53
2022/07/31 09:51:43;;;;;;;2.55;1.30;;;;;;;27.20;37.09;148955.03;1720379;83;21502;-53
2022/07/31 09:54:27;;;;;;;2.90;1.45;;;;;;;27.23;36.73;148962.64;1720780;83;21071;-54
2022/07/31 09:57:11;;;;;;;4.70;1.37;;;;;;;27.32;37.23;148985.47;1722820;82;21548;-54
2022/07/31 09:59:40;;;;;;;4.12;1.40;;;;;;;27.36;36.04;148995.63;1723161;83;21541;-54
2022/07/31 10:02:08;;;;;;;3.95;1.45;;;;;;;27.39;35.88;149003.23;1723154;83;21494;-55
2022/07/31 10:04:38;;;;;;;7.70;1.45;;;;;;;27.42;35.27;149009.59;1722964;83;21049;-55
2022/07/31 10:07:06;;;;;;;4.90;1.37;;;;;;;27.28;35.95;148975.33;1722937;83;21083;-55
2022/07/31 10:09:39;;;;;;;5.55;1.80;;;;;;;27.25;35.75;148967.72;1710621;83;21036;-57
2022/07/31 10:12:13;;;;;;;3.10;1.30;;;;;;;27.14;35.52;148939.72;1723649;83;21036;-55
2022/07/31 10:14:43;;;;;;;3.75;1.80;;;;;;;27.09;36.22;148928.30;1723178;83;20989;-56
2022/07/31 10:17:17;;;;;;;6.72;2.30;;;;;;;27.11;36.83;148932.13;1723401;83;21024;-55
2022/07/31 10:20:06;;;;;;;2.83;1.20;;;;;;;27.18;37.33;148949.94;1723216;83;21100;-55
2022/07/31 10:23:03;;;;;;;4.47;1.60;;;;;;;27.17;35.61;148948.64;1723361;83;21036;-54
2022/07/31 10:25:35;;;;;;;3.25;1.57;;;;;;;27.20;35.45;148955.03;1722942;83;21084;-55
2022/07/31 10:28:05;;;;;;;3.95;1.47;;;;;;;27.31;36.54;148981.69;1723226;83;21039;-55
2022/07/31 10:30:32;;;;;;;3.35;1.50;;;;;;;27.37;36.51;148996.89;1723401;83;20997;-55
2022/07/31 10:33:05;;;;;;;6.25;1.75;;;;;;;27.44;36.69;149015.94;1710819;83;21068;-55
2022/07/31 10:35:46;;;;;;;5.12;1.50;;;;;;;27.33;37.18;148988.03;1723356;83;21079;-55
2022/07/31 10:38:31;;;;;;;6.30;1.80;;;;;;;27.35;37.51;148993.11;1724670;82;21051;-54
2022/07/31 10:41:32;;;;;;;2.72;1.42;;;;;;;27.46;37.28;149019.77;1709390;83;21087;-55
2022/07/31 10:44:13;;;;;;;4.87;2.20;;;;;;;27.51;36.81;149031.19;1720731;83;21103;-55
2022/07/31 10:46:51;;;;;;;5.97;2.27;;;;;;;27.57;36.80;149046.41;1683309;83;21018;-55
2022/07/31 10:49:39;;;;;;;4.75;2.05;;;;;;;27.70;36.69;149079.41;1720389;83;21071;-57
2022/07/31 10:52:11;;;;;;;15.88;3.58;;;;;;;27.70;36.61;149079.41;1666998;84;21031;-55
2022/07/31 10:54:45;;;;;;;6.67;2.75;;;;;;;27.61;36.53;149056.59;1700133;84;21067;-55
2022/07/31 10:57:32;;;;;;;5.85;1.70;;;;;;;27.63;36.61;149061.63;1643135;83;21572;-55
2022/07/31 11:00:19;;;;;;;4.22;1.60;;;;;;;27.59;36.72;149052.77;1750609;82;21048;-55
2022/07/31 11:03:18;;;;;;;4.78;1.90;;;;;;;27.60;36.93;149055.28;1758067;81;21035;-56
2022/07/31 11:05:59;;;;;;;4.75;1.87;;;;;;;27.55;35.70;149041.33;1688187;81;21086;-55
2022/07/31 11:08:51;;;;;;;5.15;2.02;;;;;;;27.47;35.73;149022.28;1759517;81;21015;-55
2022/07/31 11:11:38;;;;;;;6.72;1.70;;;;;;;27.43;36.36;149013.41;1701078;81;20985;-55
2022/07/31 11:14:08;;;;;;;5.10;1.92;;;;;;;27.51;36.77;149031.19;1754830;81;21024;-55
2022/07/31 11:16:55;;;;;;;3.85;1.57;;;;;;;27.58;36.32;149048.94;1724738;81;21039;-55
2022/07/31 11:19:42;;;;;;;4.25;1.70;;;;;;;27.75;35.89;149092.11;1757204;81;21051;-56
2022/07/31 11:22:16;;;;;;;4.53;1.42;;;;;;;27.95;35.84;149141.69;1743981;82;20996;-55
2022/07/31 11:24:54;;;;;;;2.40;1.30;;;;;;;28.02;35.65;149158.22;1756066;81;20984;-56
2022/07/31 11:27:32;;;;;;;5.15;1.72;;;;;;;28.11;35.25;149181.05;1754049;81;21528;-55
2022/07/31 11:30:07;;;;;;;3.95;1.75;;;;;;;28.09;35.35;149176.00;1727092;81;21000;-56
2022/07/31 11:32:38;;;;;;;6.08;2.05;;;;;;;28.15;35.67;149191.22;1757861;81;21015;-56
2022/07/31 11:35:06;;;;;;;4.03;1.82;;;;;;;28.08;35.34;149173.44;1735102;82;21140;-55
2022/07/31 11:37:34;;;;;;;4.95;1.98;;;;;;;28.03;35.66;149160.73;1756532;81;21551;-55
2022/07/31 11:40:05;;;;;;;6.80;1.95;;;;;;;28.00;35.69;149153.13;1759178;81;21023;-56
2022/07/31 11:42:37;;;;;;;2.40;1.20;;;;;;;28.02;36.06;149158.22;1755023;81;20980;-55
2022/07/31 11:45:06;;;;;;;6.20;1.80;;;;;;;28.09;35.58;149177.27;1756881;81;21017;-56